TimeCST,TemperatureF,Dew PointF,Humidity,Sea Level PressureIn,VisibilityMPH,Wind Direction,Wind SpeedMPH,Gust SpeedMPH,PrecipitationIn,Events,Conditions,WindDirDegrees,DateUTC
12:55 AM,47.7,47.3,99,29.88,10.0,ESE,3.5,-,N/A,,Overcast,120,2012-12-07 06:55:00
12:57 AM,48.2,46.4,93,29.88,10.0,ESE,3.5,-,N/A,,Overcast,120,2012-12-07 06:57:00
1:13 AM,46.4,46.4,100,29.87,10.0,ESE,5.8,-,N/A,,Overcast,120,2012-12-07 07:13:00
1:55 AM,45.5,45.5,100,29.87,10.0,ESE,5.8,-,N/A,,Scattered Clouds,120,2012-12-07 07:55:00
2:55 AM,46.0,46.0,100,29.86,10.0,South,4.6,-,N/A,,Overcast,170,2012-12-07 08:55:00
3:55 AM,48.6,48.6,100,29.85,10.0,SSW,4.6,-,N/A,,Mostly Cloudy,200,2012-12-07 09:55:00
4:55 AM,50.4,49.6,97,29.85,10.0,SSW,4.6,-,N/A,,Overcast,200,2012-12-07 10:55:00
5:55 AM,50.7,49.1,94,29.86,10.0,SSW,5.8,-,N/A,,Overcast,210,2012-12-07 11:55:00
6:55 AM,50.5,48.9,94,29.87,10.0,SW,4.6,-,N/A,,Overcast,220,2012-12-07 12:55:00
7:19 AM,50.0,48.2,94,29.87,10.0,SW,4.6,-,N/A,,Overcast,220,2012-12-07 13:19:00
7:55 AM,50.7,49.1,94,29.87,10.0,SW,4.6,-,N/A,,Overcast,230,2012-12-07 13:55:00
8:27 AM,51.8,50.0,94,29.87,10.0,SW,4.6,-,N/A,,Overcast,230,2012-12-07 14:27:00
8:55 AM,52.2,49.5,91,29.88,10.0,Variable,4.6,-,N/A,,Overcast,0,2012-12-07 14:55:00
9:55 AM,52.9,49.5,88,29.88,10.0,West,5.8,-,N/A,,Scattered Clouds,270,2012-12-07 15:55:00
10:55 AM,55.0,49.6,82,29.87,10.0,Variable,5.8,-,N/A,,Mostly Cloudy,0,2012-12-07 16:55:00
11:10 AM,55.4,50.0,82,29.88,10.0,WSW,6.9,-,N/A,,Mostly Cloudy,240,2012-12-07 17:10:00
11:43 AM,57.2,50.0,77,29.85,10.0,WSW,6.9,-,N/A,,Mostly Cloudy,240,2012-12-07 17:43:00
11:55 AM,57.6,49.6,75,29.85,10.0,WSW,8.1,-,N/A,,Overcast,250,2012-12-07 17:55:00
12:22 PM,57.2,50.0,77,29.84,10.0,Variable,3.5,-,N/A,,Mostly Cloudy,0,2012-12-07 18:22:00
12:55 PM,57.2,49.5,75,29.83,10.0,Variable,3.5,-,N/A,,Overcast,0,2012-12-07 18:55:00
1:19 PM,57.2,50.0,77,29.82,10.0,Variable,4.6,-,N/A,,Overcast,0,2012-12-07 19:19:00
1:51 PM,57.2,50.0,77,29.81,10.0,WSW,4.6,-,N/A,,Overcast,240,2012-12-07 19:51:00
1:55 PM,57.9,49.5,73,29.81,10.0,West,4.6,-,N/A,,Overcast,260,2012-12-07 19:55:00
2:35 PM,57.2,50.0,77,29.81,10.0,Variable,4.6,-,N/A,,Overcast,0,2012-12-07 20:35:00
2:55 PM,58.1,49.8,74,29.81,10.0,Calm,Calm,-,N/A,,Overcast,0,2012-12-07 20:55:00
3:05 PM,57.2,50.0,77,29.82,10.0,SW,3.5,-,N/A,,Overcast,230,2012-12-07 21:05:00
3:35 PM,57.2,50.0,77,29.82,10.0,SW,3.5,-,N/A,,Overcast,230,2012-12-07 21:35:00
3:55 PM,57.2,49.5,75,29.82,10.0,WSW,3.5,-,N/A,,Overcast,240,2012-12-07 21:55:00
4:55 PM,56.3,50.0,79,29.83,10.0,Calm,Calm,-,N/A,,Overcast,0,2012-12-07 22:55:00
5:31 PM,55.4,50.0,82,29.83,10.0,Calm,Calm,-,N/A,,Overcast,0,2012-12-07 23:31:00
5:33 PM,55.4,50.0,82,29.83,10.0,Calm,Calm,-,N/A,,Overcast,0,2012-12-07 23:33:00
5:35 PM,55.4,50.0,82,29.83,10.0,Calm,Calm,-,N/A,,Overcast,0,2012-12-07 23:35:00
5:55 PM,55.6,50.0,81,29.83,10.0,Calm,Calm,-,N/A,,Overcast,0,2012-12-07 23:55:00
6:55 PM,54.5,50.0,85,29.84,10.0,Calm,Calm,-,N/A,,Overcast,0,2012-12-08 00:55:00
7:55 PM,54.1,50.2,86,29.84,10.0,Calm,Calm,-,N/A,,Overcast,0,2012-12-08 01:55:00
8:03 PM,53.6,50.0,88,29.85,10.0,Calm,Calm,-,N/A,,Overcast,0,2012-12-08 02:03:00
8:26 PM,53.6,50.0,88,29.84,10.0,Calm,Calm,-,N/A,,Overcast,0,2012-12-08 02:26:00
8:55 PM,53.8,50.4,88,29.84,10.0,NNE,3.5,-,N/A,,Overcast,20,2012-12-08 02:55:00
9:03 PM,53.6,50.0,88,29.84,10.0,North,3.5,-,N/A,,Overcast,10,2012-12-08 03:03:00
9:43 PM,51.8,48.2,88,29.85,10.0,North,6.9,-,N/A,,Overcast,10,2012-12-08 03:43:00
9:52 PM,51.8,48.2,88,29.85,10.0,NNE,5.8,-,N/A,,Overcast,20,2012-12-08 03:52:00
9:55 PM,52.5,48.7,87,29.86,10.0,North,5.8,-,N/A,,Overcast,10,2012-12-08 03:55:00
10:53 PM,50.0,48.2,94,29.87,10.0,North,6.9,-,N/A,,Light Drizzle,360,2012-12-08 04:53:00
10:55 PM,50.7,48.6,92,29.87,10.0,North,6.9,-,0.00,,Light Drizzle,360,2012-12-08 04:55:00
11:04 PM,50.0,48.2,94,29.87,10.0,North,5.8,-,N/A,,Overcast,350,2012-12-08 05:04:00
11:16 PM,50.0,48.2,94,29.87,10.0,North,6.9,-,N/A,,Light Drizzle,350,2012-12-08 05:16:00
11:30 PM,50.0,48.2,94,29.88,10.0,North,5.8,-,N/A,,Overcast,360,2012-12-08 05:30:00
11:32 PM,50.0,48.2,94,29.88,9.0,North,5.8,-,N/A,,Light Drizzle,360,2012-12-08 05:32:00
11:40 PM,48.2,48.2,100,29.88,8.0,North,4.6,-,N/A,,Light Drizzle,360,2012-12-08 05:40:00
11:43 PM,48.2,48.2,100,29.88,7.0,North,4.6,-,N/A,,Overcast,350,2012-12-08 05:43:00
11:47 PM,48.2,48.2,100,29.88,7.0,NNW,4.6,-,N/A,,Light Drizzle,340,2012-12-08 05:47:00
11:51 PM,48.2,48.2,100,29.88,6.0,NNW,4.6,-,N/A,,Light Drizzle,340,2012-12-08 05:51:00
11:55 PM,48.6,48.2,99,29.88,5.0,NNW,4.6,-,0.00,,Light Drizzle,340,2012-12-08 05:55:00